Time,TemperatureF,DewpointF,PressureIn,WindDirection,WindDirectionDegrees,WindSpeedMPH,WindSpeedGustMPH,Humidity,HourlyPrecipIn,Conditions,Clouds,dailyrainin,SoftwareType,DateUTC
2013-02-08 00:00:00,24.1,16.4,30.25,NE,37,0.0,8.0,72,0.00,RA,,0.00,WeatherDisplay:10.37,2013-02-08 06:00:00,
2013-02-08 00:05:00,24.1,16.4,30.24,NE,41,2.0,8.0,72,0.00,RA,,0.00,WeatherDisplay:10.37,2013-02-08 06:05:00,
2013-02-08 00:10:00,24.1,16.4,30.24,NE,44,7.0,12.0,72,0.00,CLR,,0.00,WeatherDisplay:10.37,2013-02-08 06:10:00,
2013-02-08 00:15:00,24.1,16.4,30.24,NE,35,6.0,12.0,72,0.00,CLR,,0.00,WeatherDisplay:10.37,2013-02-08 06:15:00,
2013-02-08 00:20:00,24.1,16.4,30.24,NE,39,0.0,10.0,72,0.00,CLR,,0.00,WeatherDisplay:10.37,2013-02-08 06:20:00,
2013-02-08 00:25:00,24.1,16.4,30.25,NE,40,0.0,11.0,72,0.00,CLR,,0.00,WeatherDisplay:10.37,2013-02-08 06:25:00,
2013-02-08 00:30:00,24.1,16.4,30.25,NE,37,0.0,2.0,72,0.00,CLR,,0.00,WeatherDisplay:10.37,2013-02-08 06:30:00,
2013-02-08 00:35:00,23.9,16.2,30.26,NNE,31,0.0,0.0,72,0.00,CLR,,0.00,WeatherDisplay:10.37,2013-02-08 06:35:00,
2013-02-08 00:40:00,23.9,16.2,30.26,NE,35,0.0,9.0,72,0.00,CLR,,0.00,WeatherDisplay:10.37,2013-02-08 06:40:00,
2013-02-08 00:45:00,23.8,16.1,30.26,NE,35,5.0,8.0,72,0.00,CLR,,0.00,WeatherDisplay:10.37,2013-02-08 06:45:00,
2013-02-08 00:50:00,23.7,16.0,30.26,NE,34,8.0,8.0,72,0.00,CLR,,0.00,WeatherDisplay:10.37,2013-02-08 06:50:00,
2013-02-08 00:55:00,23.7,15.7,30.27,NE,38,5.0,8.0,71,0.00,CLR,,0.00,WeatherDisplay:10.37,2013-02-08 06:55:00,
2013-02-08 01:00:00,23.7,15.7,30.27,NE,36,0.0,0.0,71,0.00,CLR,,0.00,WeatherDisplay:10.37,2013-02-08 07:00:00,
2013-02-08 01:05:00,23.7,15.7,30.27,NE,40,12.0,12.0,71,0.00,CLR,,0.00,WeatherDisplay:10.37,2013-02-08 07:05:00,
2013-02-08 01:10:00,23.5,15.5,30.27,NE,43,2.0,12.0,71,0.00,CLR,,0.00,WeatherDisplay:10.37,2013-02-08 07:10:00,
2013-02-08 01:15:00,23.5,15.5,30.28,NE,40,0.0,0.0,71,0.00,CLR,,0.00,WeatherDisplay:10.37,2013-02-08 07:15:00,
2013-02-08 01:20:00,23.5,15.5,30.27,NE,35,7.0,7.0,71,0.00,CLR,,0.00,WeatherDisplay:10.37,2013-02-08 07:20:00,
2013-02-08 01:25:00,23.5,15.5,30.27,NNE,31,13.0,13.0,71,0.00,CLR,,0.00,WeatherDisplay:10.37,2013-02-08 07:25:00,
2013-02-08 01:30:00,23.5,15.5,30.27,NNE,26,0.0,0.0,71,0.00,CLR,,0.00,WeatherDisplay:10.37,2013-02-08 07:30:00,
2013-02-08 01:35:00,23.5,15.5,30.27,NNE,22,2.0,5.0,71,0.00,CLR,,0.00,WeatherDisplay:10.37,2013-02-08 07:35:00,
2013-02-08 01:40:00,23.4,15.4,30.28,NNE,22,0.0,2.0,71,0.00,CLR,,0.00,WeatherDisplay:10.37,2013-02-08 07:40:00,
2013-02-08 01:45:00,23.4,15.3,30.28,NNE,22,0.0,3.0,71,0.02,RA,,0.02,WeatherDisplay:10.37,2013-02-08 07:45:00,
2013-02-08 01:50:00,23.4,15.3,30.28,NNE,28,2.0,3.0,71,0.00,RA,,0.02,WeatherDisplay:10.37,2013-02-08 07:50:00,
2013-02-08 01:55:00,23.4,15.3,30.28,NNE,18,0.0,3.0,71,0.00,,,0.02,WeatherDisplay:10.37,2013-02-08 07:55:00,
2013-02-08 02:00:00,23.4,15.3,30.28,NNE,24,0.0,0.0,71,0.00,CLR,,0.02,WeatherDisplay:10.37,2013-02-08 08:00:00,
2013-02-08 02:05:00,23.2,15.2,30.28,North,5,7.0,9.0,71,0.00,CLR,,0.02,WeatherDisplay:10.37,2013-02-08 08:05:00,
2013-02-08 02:10:00,22.8,15.1,30.28,North,4,0.0,6.0,72,0.00,CLR,,0.02,WeatherDisplay:10.37,2013-02-08 08:10:00,
2013-02-08 02:20:00,22.5,15.1,30.28,NNE,22,0.0,0.0,73,0.00,CLR,,0.02,WeatherDisplay:10.37,2013-02-08 08:20:00,
2013-02-08 02:25:00,22.3,14.9,30.27,NNE,29,0.0,0.0,73,0.00,CLR,,0.02,WeatherDisplay:10.37,2013-02-08 08:25:00,
2013-02-08 02:30:00,21.9,14.9,30.27,NNE,27,0.0,0.0,74,0.00,CLR,,0.02,WeatherDisplay:10.37,2013-02-08 08:30:00,
2013-02-08 02:35:00,21.9,14.9,30.28,NNE,22,0.0,0.0,74,0.00,CLR,,0.02,WeatherDisplay:10.37,2013-02-08 08:35:00,
2013-02-08 02:40:00,21.9,14.9,30.28,NNE,22,0.0,0.0,74,0.00,CLR,,0.02,WeatherDisplay:10.37,2013-02-08 08:40:00,
2013-02-08 02:45:00,21.7,14.7,30.29,NNE,22,0.0,0.0,74,0.00,CLR,,0.02,WeatherDisplay:10.37,2013-02-08 08:45:00,
2013-02-08 02:50:00,21.7,14.7,30.29,NNE,29,0.0,0.0,74,0.00,CLR,,0.02,WeatherDisplay:10.37,2013-02-08 08:50:00,
2013-02-08 02:55:00,21.7,14.7,30.29,NE,40,0.0,0.0,74,0.00,CLR,,0.02,WeatherDisplay:10.37,2013-02-08 08:55:00,
2013-02-08 03:00:00,21.7,14.7,30.29,NE,45,0.0,0.0,74,0.00,CLR,,0.02,WeatherDisplay:10.37,2013-02-08 09:00:00,
2013-02-08 03:05:00,21.7,14.7,30.29,NE,34,0.0,0.0,74,0.00,CLR,,0.02,WeatherDisplay:10.37,2013-02-08 09:05:00,
2013-02-08 03:10:00,21.6,14.9,30.29,NNE,22,0.0,0.0,75,0.00,CLR,,0.02,WeatherDisplay:10.37,2013-02-08 09:10:00,
2013-02-08 03:15:00,21.4,14.7,30.29,NNE,22,0.0,0.0,75,0.00,CLR,,0.02,WeatherDisplay:10.37,2013-02-08 09:15:00,
2013-02-08 03:20:00,21.2,14.5,30.29,NNE,22,0.0,0.0,75,0.00,CLR,,0.02,WeatherDisplay:10.37,2013-02-08 09:20:00,
2013-02-08 03:25:00,21.0,14.3,30.29,NNE,22,0.0,0.0,75,0.00,CLR,,0.02,WeatherDisplay:10.37,2013-02-08 09:25:00,
2013-02-08 03:30:00,20.3,13.3,30.29,NNE,22,0.0,0.0,74,0.00,CLR,,0.02,WeatherDisplay:10.37,2013-02-08 09:30:00,
2013-02-08 03:35:00,19.6,12.6,30.29,NNE,22,0.0,0.0,74,0.00,CLR,,0.02,WeatherDisplay:10.37,2013-02-08 09:35:00,
2013-02-08 03:40:00,19.0,12.0,30.29,NNE,22,0.0,0.0,74,0.00,CLR,,0.02,WeatherDisplay:10.37,2013-02-08 09:40:00,
2013-02-08 03:45:00,18.0,11.4,30.29,NNE,22,0.0,0.0,75,0.00,CLR,,0.02,WeatherDisplay:10.37,2013-02-08 09:45:00,
2013-02-08 03:50:00,17.2,10.7,30.29,NNE,22,0.0,0.0,75,0.00,CLR,,0.02,WeatherDisplay:10.37,2013-02-08 09:50:00,
2013-02-08 03:55:00,16.5,9.9,30.29,NNE,22,0.0,0.0,75,0.00,CLR,,0.02,WeatherDisplay:10.37,2013-02-08 09:55:00,
2013-02-08 04:00:00,15.8,9.6,30.29,NNE,22,0.0,0.0,76,0.00,CLR,,0.02,WeatherDisplay:10.37,2013-02-08 10:00:00,
2013-02-08 04:05:00,15.6,9.4,30.29,NNE,22,0.0,0.0,76,0.02,RA,,0.05,WeatherDisplay:10.37,2013-02-08 10:05:00,
2013-02-08 04:10:00,15.1,8.9,30.29,NNE,22,0.0,0.0,76,0.00,RA,,0.05,WeatherDisplay:10.37,2013-02-08 10:10:00,
2013-02-08 04:15:00,14.7,8.5,30.30,NNE,22,0.0,0.0,76,0.00,CLR,,0.05,WeatherDisplay:10.37,2013-02-08 10:15:00,
2013-02-08 04:20:00,14.4,8.5,30.30,NNE,22,0.0,0.0,77,0.00,CLR,,0.05,WeatherDisplay:10.37,2013-02-08 10:20:00,
2013-02-08 04:25:00,14.1,8.2,30.30,NNE,22,0.0,0.0,77,0.00,CLR,,0.05,WeatherDisplay:10.37,2013-02-08 10:25:00,
2013-02-08 04:30:00,13.6,7.8,30.31,NNE,22,0.0,0.0,77,0.00,CLR,,0.05,WeatherDisplay:10.37,2013-02-08 10:30:00,
2013-02-08 04:35:00,13.1,7.2,30.31,NNE,22,0.0,0.0,77,0.00,CLR,,0.05,WeatherDisplay:10.37,2013-02-08 10:35:00,
2013-02-08 04:40:00,12.6,6.8,30.31,NNE,22,0.0,0.0,77,0.00,CLR,,0.05,WeatherDisplay:10.37,2013-02-08 10:40:00,
2013-02-08 04:45:00,12.0,6.2,30.31,NNE,22,0.0,0.0,77,0.00,CLR,,0.05,WeatherDisplay:10.37,2013-02-08 10:45:00,
2013-02-08 04:50:00,11.7,5.8,30.31,NNE,22,0.0,0.0,77,0.00,CLR,,0.05,WeatherDisplay:10.37,2013-02-08 10:50:00,
2013-02-08 04:55:00,11.1,5.3,30.31,NNE,22,0.0,0.0,77,0.00,CLR,,0.05,WeatherDisplay:10.37,2013-02-08 10:55:00,
2013-02-08 05:00:00,10.9,5.1,30.31,NNE,22,0.0,0.0,77,0.00,CLR,,0.05,WeatherDisplay:10.37,2013-02-08 11:00:00,
2013-02-08 05:05:00,10.6,4.8,30.31,NNE,22,0.0,0.0,77,0.00,CLR,,0.05,WeatherDisplay:10.37,2013-02-08 11:05:00,
2013-02-08 05:10:00,9.9,4.2,30.31,NNE,22,0.0,0.0,77,0.00,CLR,,0.05,WeatherDisplay:10.37,2013-02-08 11:10:00,
2013-02-08 05:15:00,9.7,3.9,30.32,NNE,22,0.0,0.0,77,0.00,CLR,,0.05,WeatherDisplay:10.37,2013-02-08 11:15:00,
2013-02-08 05:20:00,9.2,3.2,30.32,NNE,22,0.0,0.0,76,0.02,RA,,0.07,WeatherDisplay:10.37,2013-02-08 11:20:00,
2013-02-08 05:25:00,8.6,2.6,30.32,NNE,22,0.0,0.0,76,0.00,RA,,0.07,WeatherDisplay:10.37,2013-02-08 11:25:00,
2013-02-08 05:30:00,8.8,3.0,30.32,NNE,22,0.0,0.0,77,0.00,,,0.07,WeatherDisplay:10.37,2013-02-08 11:30:00,
2013-02-08 05:35:00,8.8,3.0,30.32,NNE,22,0.0,0.0,77,0.00,CLR,,0.07,WeatherDisplay:10.37,2013-02-08 11:35:00,
2013-02-08 05:40:00,8.9,3.2,30.32,NNE,22,0.0,0.0,77,0.00,CLR,,0.07,WeatherDisplay:10.37,2013-02-08 11:40:00,
2013-02-08 05:45:00,9.1,3.4,30.33,NNE,22,0.0,0.0,77,0.00,CLR,,0.07,WeatherDisplay:10.37,2013-02-08 11:45:00,
2013-02-08 05:50:00,9.1,3.4,30.33,NNE,22,0.0,0.0,77,0.00,CLR,,0.07,WeatherDisplay:10.37,2013-02-08 11:50:00,
2013-02-08 05:55:00,9.1,3.4,30.33,NNW,347,0.0,0.0,77,0.00,CLR,,0.07,WeatherDisplay:10.37,2013-02-08 11:55:00,
2013-02-08 06:00:00,9.0,3.2,30.33,SW,228,0.0,0.0,77,0.00,CLR,,0.07,WeatherDisplay:10.37,2013-02-08 12:00:00,
2013-02-08 06:05:00,8.4,2.4,30.33,SW,225,0.0,0.0,76,0.00,CLR,,0.07,WeatherDisplay:10.37,2013-02-08 12:05:00,
2013-02-08 06:10:00,8.0,2.0,30.33,SW,225,0.0,0.0,76,0.00,CLR,,0.07,WeatherDisplay:10.37,2013-02-08 12:10:00,
2013-02-08 06:15:00,7.3,1.4,30.33,SW,225,0.0,0.0,76,0.00,CLR,,0.07,WeatherDisplay:10.37,2013-02-08 12:15:00,
2013-02-08 06:20:00,7.0,1.0,30.34,SW,225,0.0,0.0,76,0.00,CLR,,0.07,WeatherDisplay:10.37,2013-02-08 12:20:00,
2013-02-08 06:25:00,6.8,0.8,30.33,SW,225,0.0,0.0,76,0.00,CLR,,0.07,WeatherDisplay:10.37,2013-02-08 12:25:00,
2013-02-08 06:30:00,6.6,0.7,30.33,SW,225,0.0,0.0,76,0.00,CLR,,0.07,WeatherDisplay:10.37,2013-02-08 12:30:00,
2013-02-08 06:35:00,6.8,0.8,30.33,SW,225,0.0,0.0,76,0.00,CLR,,0.07,WeatherDisplay:10.37,2013-02-08 12:35:00,
2013-02-08 06:40:00,7.0,1.3,30.33,SW,225,0.0,0.0,77,0.00,CLR,,0.07,WeatherDisplay:10.37,2013-02-08 12:40:00,
2013-02-08 06:45:00,6.6,0.9,30.33,SW,225,0.0,0.0,77,0.00,CLR,,0.07,WeatherDisplay:10.37,2013-02-08 12:45:00,
2013-02-08 06:50:00,6.6,0.9,30.33,SW,225,0.0,0.0,77,0.00,CLR,,0.07,WeatherDisplay:10.37,2013-02-08 12:50:00,
2013-02-08 06:55:00,6.4,0.5,30.34,SW,225,0.0,0.0,76,0.00,CLR,,0.07,WeatherDisplay:10.37,2013-02-08 12:55:00,
2013-02-08 07:00:00,6.1,0.1,30.34,SW,225,0.0,0.0,76,0.00,CLR,,0.07,WeatherDisplay:10.37,2013-02-08 13:00:00,
2013-02-08 07:05:00,5.7,-0.2,30.34,SW,225,0.0,0.0,76,0.00,CLR,,0.07,WeatherDisplay:10.37,2013-02-08 13:05:00,
2013-02-08 07:10:00,5.4,-0.5,30.34,SW,225,0.0,0.0,76,0.00,CLR,,0.07,WeatherDisplay:10.37,2013-02-08 13:10:00,
2013-02-08 07:15:00,5.0,-0.9,30.34,SW,225,0.0,0.0,76,0.00,CLR,,0.07,WeatherDisplay:10.37,2013-02-08 13:15:00,
2013-02-08 07:20:00,4.8,-1.1,30.34,SW,225,0.0,0.0,76,0.00,CLR,,0.07,WeatherDisplay:10.37,2013-02-08 13:20:00,
2013-02-08 07:25:00,4.5,-1.4,30.34,SW,225,0.0,0.0,76,0.00,CLR,,0.07,WeatherDisplay:10.37,2013-02-08 13:25:00,
2013-02-08 07:30:00,4.3,-1.6,30.34,SW,225,0.0,0.0,76,0.00,CLR,,0.07,WeatherDisplay:10.37,2013-02-08 13:30:00,
2013-02-08 07:40:00,3.7,-2.5,30.34,SW,225,0.0,0.0,75,0.00,CLR,,0.07,WeatherDisplay:10.37,2013-02-08 13:40:00,
2013-02-08 07:50:00,3.0,-3.1,30.34,SW,225,0.0,0.0,75,0.00,CLR,,0.07,WeatherDisplay:10.37,2013-02-08 13:50:00,
2013-02-08 07:55:00,3.2,-2.9,30.35,SW,225,0.0,0.0,75,0.00,CLR,,0.07,WeatherDisplay:10.37,2013-02-08 13:55:00,
2013-02-08 08:00:00,3.4,-2.8,30.35,SW,225,0.0,0.0,75,0.00,CLR,,0.07,WeatherDisplay:10.37,2013-02-08 14:00:00,
2013-02-08 08:05:00,3.4,-2.8,30.35,SW,225,0.0,0.0,75,0.00,CLR,,0.07,WeatherDisplay:10.37,2013-02-08 14:05:00,
2013-02-08 08:10:00,3.9,-2.0,30.35,SW,225,0.0,0.0,76,0.00,CLR,,0.07,WeatherDisplay:10.37,2013-02-08 14:10:00,
2013-02-08 08:15:00,4.1,-1.8,30.35,SW,225,0.0,0.0,76,0.00,CLR,,0.07,WeatherDisplay:10.37,2013-02-08 14:15:00,
2013-02-08 08:25:00,5.3,-0.3,30.36,SW,225,0.0,0.0,77,0.00,CLR,,0.07,WeatherDisplay:10.37,2013-02-08 14:25:00,
2013-02-08 08:30:00,5.9,0.2,30.36,SW,225,0.0,0.0,77,0.00,CLR,,0.07,WeatherDisplay:10.37,2013-02-08 14:30:00,
2013-02-08 08:35:00,6.4,0.8,30.36,SW,225,0.0,0.0,77,0.00,CLR,,0.07,WeatherDisplay:10.37,2013-02-08 14:35:00,
2013-02-08 08:40:00,6.8,1.4,30.36,SW,225,0.0,0.0,78,0.00,CLR,,0.07,WeatherDisplay:10.37,2013-02-08 14:40:00,
2013-02-08 08:45:00,7.3,1.9,30.36,SW,225,0.0,0.0,78,0.00,CLR,,0.07,WeatherDisplay:10.37,2013-02-08 14:45:00,
2013-02-08 08:50:00,7.9,2.4,30.36,SW,225,0.0,0.0,78,0.00,CLR,,0.07,WeatherDisplay:10.37,2013-02-08 14:50:00,
2013-02-08 08:55:00,8.5,3.0,30.36,SW,225,0.0,0.0,78,0.02,RA,,0.09,WeatherDisplay:10.37,2013-02-08 14:55:00,
2013-02-08 09:00:00,9.3,3.8,30.36,SW,225,0.0,0.0,78,0.00,RA,,0.09,WeatherDisplay:10.37,2013-02-08 15:00:00,
2013-02-08 09:05:00,10.0,4.8,30.36,SW,225,0.0,0.0,79,0.00,,,0.09,WeatherDisplay:10.37,2013-02-08 15:05:00,
2013-02-08 09:10:00,10.6,5.4,30.36,South,186,0.0,0.0,79,0.02,RA,,0.12,WeatherDisplay:10.37,2013-02-08 15:10:00,
2013-02-08 09:15:00,11.4,6.2,30.36,ESE,120,0.0,0.0,79,0.00,RA,,0.12,WeatherDisplay:10.37,2013-02-08 15:15:00,
2013-02-08 09:20:00,12.2,7.0,30.36,East,100,0.0,0.0,79,0.00,,,0.12,WeatherDisplay:10.37,2013-02-08 15:20:00,
2013-02-08 09:25:00,13.2,8.2,30.36,ENE,77,0.0,0.0,80,0.00,CLR,,0.12,WeatherDisplay:10.37,2013-02-08 15:25:00,
2013-02-08 09:30:00,13.8,8.8,30.36,ENE,68,0.0,0.0,80,0.00,CLR,,0.12,WeatherDisplay:10.37,2013-02-08 15:30:00,
2013-02-08 09:35:00,14.5,9.5,30.36,East,91,0.0,0.0,80,0.00,CLR,,0.12,WeatherDisplay:10.37,2013-02-08 15:35:00,
2013-02-08 09:40:00,14.9,9.9,30.36,SE,124,0.0,0.0,80,0.00,CLR,,0.12,WeatherDisplay:10.37,2013-02-08 15:40:00,
2013-02-08 09:45:00,15.4,10.4,30.36,SE,136,0.0,0.0,80,0.02,RA,,0.14,WeatherDisplay:10.37,2013-02-08 15:45:00,
2013-02-08 09:50:00,15.8,10.7,30.36,SE,134,0.0,0.0,80,0.00,RA,,0.14,WeatherDisplay:10.37,2013-02-08 15:50:00,
2013-02-08 09:55:00,16.3,11.2,30.36,ESE,114,0.0,0.0,80,0.00,,,0.14,WeatherDisplay:10.37,2013-02-08 15:55:00,
2013-02-08 10:00:00,16.5,11.4,30.36,ESE,111,0.0,0.0,80,0.00,CLR,,0.14,WeatherDisplay:10.37,2013-02-08 16:00:00,
2013-02-08 10:05:00,16.9,11.5,30.36,ESE,117,0.0,7.0,79,0.00,CLR,,0.14,WeatherDisplay:10.37,2013-02-08 16:05:00,
2013-02-08 10:10:00,17.2,11.8,30.36,ESE,115,0.0,7.0,79,0.00,CLR,,0.14,WeatherDisplay:10.37,2013-02-08 16:10:00,
2013-02-08 10:15:00,17.4,11.7,30.36,ESE,120,0.0,0.0,78,0.00,CLR,,0.14,WeatherDisplay:10.37,2013-02-08 16:15:00,
2013-02-08 10:20:00,17.8,12.1,30.36,SE,141,0.0,0.0,78,0.00,CLR,,0.14,WeatherDisplay:10.37,2013-02-08 16:20:00,
2013-02-08 10:25:00,18.3,12.6,30.36,SE,129,0.0,0.0,78,0.00,CLR,,0.14,WeatherDisplay:10.37,2013-02-08 16:25:00,
2013-02-08 10:30:00,19.0,13.3,30.36,SE,124,0.0,2.0,78,0.00,CLR,,0.14,WeatherDisplay:10.37,2013-02-08 16:30:00,
2013-02-08 10:35:00,19.6,13.5,30.36,ESE,112,0.0,0.0,77,0.00,CLR,,0.14,WeatherDisplay:10.37,2013-02-08 16:35:00,
2013-02-08 10:40:00,20.1,13.7,30.36,ESE,122,0.0,0.0,76,0.00,CLR,,0.14,WeatherDisplay:10.37,2013-02-08 16:40:00,
2013-02-08 10:45:00,20.5,14.1,30.36,SE,136,2.0,3.0,76,0.00,CLR,,0.14,WeatherDisplay:10.37,2013-02-08 16:45:00,
2013-02-08 10:50:00,21.1,14.7,30.36,SE,139,2.0,6.0,76,0.00,CLR,,0.14,WeatherDisplay:10.37,2013-02-08 16:50:00,
2013-02-08 10:55:00,21.8,14.8,30.36,SSE,151,7.0,9.0,74,0.00,CLR,,0.14,WeatherDisplay:10.37,2013-02-08 16:55:00,
2013-02-08 11:00:00,22.3,15.2,30.36,SSE,150,0.0,0.0,74,0.00,CLR,,0.14,WeatherDisplay:10.37,2013-02-08 17:00:00,
2013-02-08 11:05:00,22.8,15.4,30.36,SE,128,0.0,0.0,73,0.00,CLR,,0.14,WeatherDisplay:10.37,2013-02-08 17:05:00,
2013-02-08 11:10:00,22.9,14.9,30.36,SE,129,1.0,6.0,71,0.00,CLR,,0.14,WeatherDisplay:10.37,2013-02-08 17:10:00,
2013-02-08 11:15:00,23.2,14.8,30.36,SE,130,0.0,6.0,70,0.00,CLR,,0.14,WeatherDisplay:10.37,2013-02-08 17:15:00,
2013-02-08 11:25:00,23.5,14.9,30.36,SE,141,8.0,8.0,69,0.00,CLR,,0.14,WeatherDisplay:10.37,2013-02-08 17:25:00,
2013-02-08 11:30:00,23.9,14.9,30.36,SE,141,0.0,0.0,68,0.00,CLR,,0.14,WeatherDisplay:10.37,2013-02-08 17:30:00,
2013-02-08 11:35:00,24.1,14.7,30.35,SE,140,0.0,0.0,67,0.00,CLR,,0.14,WeatherDisplay:10.37,2013-02-08 17:35:00,
2013-02-08 11:40:00,24.4,15.0,30.36,SE,135,0.0,7.0,67,0.00,CLR,,0.14,WeatherDisplay:10.37,2013-02-08 17:40:00,
2013-02-08 11:45:00,24.4,14.7,30.36,SE,139,2.0,7.0,66,0.00,CLR,,0.14,WeatherDisplay:10.37,2013-02-08 17:45:00,
2013-02-08 11:50:00,24.4,14.7,30.36,SE,145,0.0,0.0,66,0.00,CLR,,0.14,WeatherDisplay:10.37,2013-02-08 17:50:00,
2013-02-08 11:55:00,24.6,14.9,30.36,SSE,159,0.0,1.0,66,0.00,CLR,,0.14,WeatherDisplay:10.37,2013-02-08 17:55:00,
2013-02-08 12:00:00,24.6,14.5,30.36,SSE,161,0.0,1.0,65,0.00,CLR,,0.14,WeatherDisplay:10.37,2013-02-08 18:00:00,
2013-02-08 12:10:00,25.2,15.0,30.35,SE,132,0.0,0.0,65,0.00,CLR,,0.14,WeatherDisplay:10.37,2013-02-08 18:10:00,
2013-02-08 12:15:00,25.2,14.7,30.35,SE,134,0.0,0.0,64,0.00,CLR,,0.14,WeatherDisplay:10.37,2013-02-08 18:15:00,
2013-02-08 12:20:00,25.3,14.9,30.35,SSE,157,0.0,0.0,64,0.00,CLR,,0.14,WeatherDisplay:10.37,2013-02-08 18:20:00,
2013-02-08 12:25:00,25.3,14.9,30.35,SSE,158,0.0,0.0,64,0.00,CLR,,0.14,WeatherDisplay:10.37,2013-02-08 18:25:00,
2013-02-08 12:30:00,25.7,14.8,30.35,SSE,151,0.0,0.0,63,0.00,CLR,,0.14,WeatherDisplay:10.37,2013-02-08 18:30:00,
2013-02-08 12:35:00,26.1,15.2,30.34,SSE,165,0.0,0.0,63,0.00,CLR,,0.14,WeatherDisplay:10.37,2013-02-08 18:35:00,
2013-02-08 12:40:00,26.4,15.5,30.34,SSE,153,0.0,0.0,63,0.00,CLR,,0.14,WeatherDisplay:10.37,2013-02-08 18:40:00,
2013-02-08 12:45:00,26.8,15.5,30.34,SE,137,0.0,0.0,62,0.00,CLR,,0.14,WeatherDisplay:10.37,2013-02-08 18:45:00,
2013-02-08 12:50:00,27.2,15.5,30.34,SE,136,0.0,0.0,61,0.00,CLR,,0.14,WeatherDisplay:10.37,2013-02-08 18:50:00,
2013-02-08 12:55:00,27.4,15.7,30.34,SSE,150,0.0,0.0,61,0.00,CLR,,0.14,WeatherDisplay:10.37,2013-02-08 18:55:00,
2013-02-08 13:05:00,27.8,15.7,30.34,SE,140,2.0,3.0,60,0.00,CLR,,0.14,WeatherDisplay:10.37,2013-02-08 19:05:00,
2013-02-08 13:10:00,28.2,16.0,30.34,SE,141,3.0,4.0,60,0.00,CLR,,0.14,WeatherDisplay:10.37,2013-02-08 19:10:00,
2013-02-08 13:15:00,28.6,16.1,30.33,SE,132,0.0,0.0,59,0.00,CLR,,0.14,WeatherDisplay:10.37,2013-02-08 19:15:00,
2013-02-08 13:20:00,28.6,16.1,30.33,ESE,122,0.0,0.0,59,0.00,CLR,,0.14,WeatherDisplay:10.37,2013-02-08 19:20:00,
2013-02-08 13:25:00,28.7,16.1,30.33,SE,142,0.0,0.0,59,0.00,CLR,,0.14,WeatherDisplay:10.37,2013-02-08 19:25:00,
2013-02-08 13:35:00,28.8,15.8,30.33,SSE,147,0.0,0.0,58,0.00,CLR,,0.14,WeatherDisplay:10.37,2013-02-08 19:35:00,
2013-02-08 13:40:00,28.9,15.9,30.33,SSE,150,0.0,0.0,58,0.00,CLR,,0.14,WeatherDisplay:10.37,2013-02-08 19:40:00,
2013-02-08 13:45:00,29.1,16.2,30.33,SSE,156,0.0,0.0,58,0.00,CLR,,0.14,WeatherDisplay:10.37,2013-02-08 19:45:00,
2013-02-08 13:50:00,29.6,16.6,30.33,SE,145,0.0,0.0,58,0.00,CLR,,0.14,WeatherDisplay:10.37,2013-02-08 19:50:00,
2013-02-08 14:00:00,30.6,16.7,30.32,SE,125,0.0,0.0,56,0.00,CLR,,0.14,WeatherDisplay:10.37,2013-02-08 20:00:00,
2013-02-08 14:05:00,30.6,16.8,30.32,ESE,114,0.0,0.0,56,0.00,CLR,,0.14,WeatherDisplay:10.37,2013-02-08 20:05:00,
2013-02-08 14:15:00,30.9,16.6,30.31,SE,140,0.0,0.0,55,0.00,CLR,,0.14,WeatherDisplay:10.37,2013-02-08 20:15:00,
2013-02-08 14:20:00,31.1,16.8,30.31,SE,138,0.0,0.0,55,0.00,CLR,,0.14,WeatherDisplay:10.37,2013-02-08 20:20:00,
2013-02-08 14:25:00,31.0,16.7,30.31,SE,134,0.0,0.0,55,0.00,CLR,,0.14,WeatherDisplay:10.37,2013-02-08 20:25:00,
2013-02-08 14:30:00,31.1,16.4,30.30,SE,128,2.0,4.0,54,0.00,CLR,,0.14,WeatherDisplay:10.37,2013-02-08 20:30:00,
2013-02-08 14:40:00,31.1,16.4,30.30,SE,133,0.0,0.0,54,0.00,CLR,,0.14,WeatherDisplay:10.37,2013-02-08 20:40:00,
2013-02-08 14:45:00,31.1,16.4,30.30,SE,133,0.0,0.0,54,0.00,CLR,,0.14,WeatherDisplay:10.37,2013-02-08 20:45:00,
2013-02-08 14:50:00,31.2,16.5,30.29,SE,141,0.0,0.0,54,0.00,CLR,,0.14,WeatherDisplay:10.37,2013-02-08 20:50:00,
2013-02-08 14:55:00,31.0,15.9,30.29,SE,139,0.0,0.0,53,0.00,CLR,,0.14,WeatherDisplay:10.37,2013-02-08 20:55:00,
2013-02-08 15:00:00,30.9,15.8,30.30,SE,130,0.0,1.0,53,0.00,CLR,,0.14,WeatherDisplay:10.37,2013-02-08 21:00:00,
2013-02-08 15:05:00,30.9,15.8,30.29,ESE,123,0.0,1.0,53,0.00,CLR,,0.14,WeatherDisplay:10.37,2013-02-08 21:05:00,
2013-02-08 15:10:00,30.8,15.7,30.29,SE,141,0.0,0.0,53,0.00,CLR,,0.14,WeatherDisplay:10.37,2013-02-08 21:10:00,
2013-02-08 15:15:00,30.9,15.8,30.29,SE,131,0.0,0.0,53,0.00,CLR,,0.14,WeatherDisplay:10.37,2013-02-08 21:15:00,
2013-02-08 15:20:00,30.7,15.6,30.29,ESE,116,6.0,7.0,53,0.00,CLR,,0.14,WeatherDisplay:10.37,2013-02-08 21:20:00,
2013-02-08 15:25:00,30.2,15.1,30.28,ESE,121,0.0,7.0,53,0.00,CLR,,0.14,WeatherDisplay:10.37,2013-02-08 21:25:00,
2013-02-08 15:30:00,29.9,14.8,30.28,ESE,122,7.0,8.0,53,0.00,CLR,,0.14,WeatherDisplay:10.37,2013-02-08 21:30:00,
2013-02-08 15:35:00,29.3,14.3,30.28,SE,140,0.0,8.0,53,0.00,CLR,,0.14,WeatherDisplay:10.37,2013-02-08 21:35:00,
2013-02-08 15:40:00,28.7,14.1,30.28,SSE,149,0.0,0.0,54,0.00,CLR,,0.14,WeatherDisplay:10.37,2013-02-08 21:40:00,
2013-02-08 15:45:00,28.2,13.7,30.29,SE,137,0.0,0.0,54,0.00,CLR,,0.14,WeatherDisplay:10.37,2013-02-08 21:45:00,
2013-02-08 15:50:00,28.2,13.7,30.28,SE,134,0.0,0.0,54,0.00,CLR,,0.14,WeatherDisplay:10.37,2013-02-08 21:50:00,
2013-02-08 15:55:00,28.2,14.1,30.28,SE,130,0.0,0.0,55,0.00,CLR,,0.14,WeatherDisplay:10.37,2013-02-08 21:55:00,
2013-02-08 16:00:00,28.2,14.1,30.28,SE,133,0.0,0.0,55,0.00,CLR,,0.14,WeatherDisplay:10.37,2013-02-08 22:00:00,
2013-02-08 16:10:00,28.2,14.1,30.28,SE,124,0.0,0.0,55,0.00,CLR,,0.14,WeatherDisplay:10.37,2013-02-08 22:10:00,
2013-02-08 16:15:00,28.0,13.9,30.28,SE,132,0.0,0.0,55,0.00,CLR,,0.14,WeatherDisplay:10.37,2013-02-08 22:15:00,
2013-02-08 16:20:00,27.7,13.6,30.28,SE,138,3.0,4.0,55,0.00,CLR,,0.14,WeatherDisplay:10.37,2013-02-08 22:20:00,
2013-02-08 16:25:00,27.7,13.6,30.28,SE,140,0.0,4.0,55,0.00,CLR,,0.14,WeatherDisplay:10.37,2013-02-08 22:25:00,
2013-02-08 16:35:00,27.0,13.0,30.28,SE,130,0.0,0.0,55,0.00,CLR,,0.14,WeatherDisplay:10.37,2013-02-08 22:35:00,
2013-02-08 16:40:00,26.6,13.0,30.28,SE,131,0.0,0.0,56,0.00,CLR,,0.14,WeatherDisplay:10.37,2013-02-08 22:40:00,
2013-02-08 16:45:00,26.4,12.8,30.28,SE,135,0.0,0.0,56,0.00,CLR,,0.14,WeatherDisplay:10.37,2013-02-08 22:45:00,
2013-02-08 16:50:00,25.8,12.2,30.28,SE,142,0.0,0.0,56,0.00,CLR,,0.14,WeatherDisplay:10.37,2013-02-08 22:50:00,
2013-02-08 16:55:00,25.4,11.8,30.28,SE,140,0.0,0.0,56,0.00,CLR,,0.14,WeatherDisplay:10.37,2013-02-08 22:55:00,
2013-02-08 17:05:00,24.1,11.0,30.27,SE,143,0.0,0.0,57,0.00,CLR,,0.14,WeatherDisplay:10.37,2013-02-08 23:05:00,
2013-02-08 17:10:00,23.2,10.6,30.27,SE,145,0.0,0.0,58,0.00,CLR,,0.14,WeatherDisplay:10.37,2013-02-08 23:10:00,
2013-02-08 17:15:00,22.6,10.1,30.27,SE,137,0.0,0.0,58,0.00,CLR,,0.14,WeatherDisplay:10.37,2013-02-08 23:15:00,
2013-02-08 17:20:00,21.9,9.4,30.27,SE,135,0.0,0.0,58,0.00,CLR,,0.14,WeatherDisplay:10.37,2013-02-08 23:20:00,
2013-02-08 17:25:00,20.9,8.8,30.27,SE,135,0.0,0.0,59,0.00,CLR,,0.14,WeatherDisplay:10.37,2013-02-08 23:25:00,
2013-02-08 17:30:00,20.3,8.7,30.26,SE,135,0.0,0.0,60,0.00,CLR,,0.14,WeatherDisplay:10.37,2013-02-08 23:30:00,
2013-02-08 17:35:00,19.3,7.7,30.26,SE,135,0.0,0.0,60,0.00,CLR,,0.14,WeatherDisplay:10.37,2013-02-08 23:35:00,
2013-02-08 17:45:00,17.8,6.6,30.26,SE,135,0.0,0.0,61,0.00,CLR,,0.14,WeatherDisplay:10.37,2013-02-08 23:45:00,
2013-02-08 17:50:00,17.4,6.6,30.27,SE,135,0.0,0.0,62,0.00,CLR,,0.14,WeatherDisplay:10.37,2013-02-08 23:50:00,
2013-02-08 17:55:00,16.7,6.3,30.26,SE,135,0.0,0.0,63,0.00,CLR,,0.14,WeatherDisplay:10.37,2013-02-08 23:55:00,
2013-02-08 18:00:00,16.3,5.9,30.26,SE,135,0.0,0.0,63,0.00,CLR,,0.14,WeatherDisplay:10.37,2013-02-09 00:00:00,
2013-02-08 18:05:00,15.9,5.5,30.26,SE,135,0.0,0.0,63,0.00,CLR,,0.14,WeatherDisplay:10.37,2013-02-09 00:05:00,
2013-02-08 18:10:00,15.3,5.3,30.26,SE,135,0.0,0.0,64,0.00,CLR,,0.14,WeatherDisplay:10.37,2013-02-09 00:10:00,
2013-02-08 18:15:00,14.7,4.7,30.27,SE,135,0.0,0.0,64,0.00,CLR,,0.14,WeatherDisplay:10.37,2013-02-09 00:15:00,
2013-02-08 18:20:00,14.4,4.7,30.26,SE,135,0.0,0.0,65,0.00,CLR,,0.14,WeatherDisplay:10.37,2013-02-09 00:20:00,
2013-02-08 18:25:00,14.1,4.5,30.26,SE,135,0.0,0.0,65,0.00,CLR,,0.14,WeatherDisplay:10.37,2013-02-09 00:25:00,
2013-02-08 18:30:00,13.6,4.0,30.26,SE,135,0.0,0.0,65,0.00,CLR,,0.14,WeatherDisplay:10.37,2013-02-09 00:30:00,
2013-02-08 18:35:00,13.2,3.9,30.25,SE,135,0.0,0.0,66,0.00,CLR,,0.14,WeatherDisplay:10.37,2013-02-09 00:35:00,
2013-02-08 18:40:00,12.8,3.5,30.26,SE,135,0.0,0.0,66,0.00,CLR,,0.14,WeatherDisplay:10.37,2013-02-09 00:40:00,
2013-02-08 18:45:00,12.6,3.7,30.26,SE,135,0.0,0.0,67,0.00,CLR,,0.14,WeatherDisplay:10.37,2013-02-09 00:45:00,
2013-02-08 18:50:00,12.4,3.5,30.26,SE,135,0.0,0.0,67,0.00,CLR,,0.14,WeatherDisplay:10.37,2013-02-09 00:50:00,
2013-02-08 18:55:00,12.4,3.5,30.26,SE,135,0.0,0.0,67,0.00,CLR,,0.14,WeatherDisplay:10.37,2013-02-09 00:55:00,
2013-02-08 19:00:00,12.0,3.2,30.25,SE,135,0.0,0.0,67,0.00,CLR,,0.14,WeatherDisplay:10.37,2013-02-09 01:00:00,
2013-02-08 19:05:00,11.7,2.8,30.26,SE,135,0.0,0.0,67,0.00,CLR,,0.14,WeatherDisplay:10.37,2013-02-09 01:05:00,
2013-02-08 19:10:00,11.3,2.8,30.26,SE,135,0.0,0.0,68,0.00,CLR,,0.14,WeatherDisplay:10.37,2013-02-09 01:10:00,
2013-02-08 19:15:00,11.5,3.0,30.26,SE,135,0.0,0.0,68,0.00,CLR,,0.14,WeatherDisplay:10.37,2013-02-09 01:15:00,
2013-02-08 19:20:00,11.7,3.4,30.26,SE,135,0.0,0.0,69,0.00,CLR,,0.14,WeatherDisplay:10.37,2013-02-09 01:20:00,
2013-02-08 19:30:00,11.8,3.9,30.26,SE,135,0.0,0.0,70,0.00,CLR,,0.14,WeatherDisplay:10.37,2013-02-09 01:30:00,
2013-02-08 19:35:00,11.8,3.9,30.26,SE,135,0.0,0.0,70,0.00,CLR,,0.14,WeatherDisplay:10.37,2013-02-09 01:35:00,
2013-02-08 19:40:00,11.7,3.8,30.26,SE,135,0.0,0.0,70,0.00,CLR,,0.14,WeatherDisplay:10.37,2013-02-09 01:40:00,
2013-02-08 19:45:00,11.5,3.6,30.26,SE,135,0.0,0.0,70,0.00,CLR,,0.14,WeatherDisplay:10.37,2013-02-09 01:45:00,
2013-02-08 19:50:00,11.1,3.2,30.26,SE,135,0.0,0.0,70,0.00,CLR,,0.14,WeatherDisplay:10.37,2013-02-09 01:50:00,
2013-02-08 19:55:00,10.9,3.1,30.26,SE,135,0.0,0.0,70,0.00,CLR,,0.14,WeatherDisplay:10.37,2013-02-09 01:55:00,
2013-02-08 20:05:00,10.6,2.7,30.25,SE,135,0.0,0.0,70,0.00,CLR,,0.14,WeatherDisplay:10.37,2013-02-09 02:05:00,
2013-02-08 20:10:00,10.4,2.9,30.25,SE,135,0.0,0.0,71,0.00,CLR,,0.14,WeatherDisplay:10.37,2013-02-09 02:10:00,
2013-02-08 20:15:00,10.2,2.7,30.25,SE,135,0.0,0.0,71,0.00,CLR,,0.14,WeatherDisplay:10.37,2013-02-09 02:15:00,
2013-02-08 20:20:00,10.2,2.7,30.25,SE,135,0.0,0.0,71,0.00,CLR,,0.14,WeatherDisplay:10.37,2013-02-09 02:20:00,
2013-02-08 20:25:00,10.1,2.5,30.25,SE,135,0.0,0.0,71,0.00,CLR,,0.14,WeatherDisplay:10.37,2013-02-09 02:25:00,
2013-02-08 20:30:00,10.0,2.4,30.25,SE,135,0.0,0.0,71,0.00,CLR,,0.14,WeatherDisplay:10.37,2013-02-09 02:30:00,
2013-02-08 20:35:00,9.7,2.5,30.25,SE,135,0.0,0.0,72,0.00,CLR,,0.14,WeatherDisplay:10.37,2013-02-09 02:35:00,
2013-02-08 20:40:00,9.7,2.5,30.25,SE,135,0.0,0.0,72,0.00,CLR,,0.14,WeatherDisplay:10.37,2013-02-09 02:40:00,
2013-02-08 20:45:00,9.5,2.3,30.25,SE,135,0.0,0.0,72,0.00,CLR,,0.14,WeatherDisplay:10.37,2013-02-09 02:45:00,
2013-02-08 20:50:00,9.1,1.9,30.25,SE,135,0.0,0.0,72,0.00,CLR,,0.14,WeatherDisplay:10.37,2013-02-09 02:50:00,
2013-02-08 20:55:00,9.1,1.9,30.25,SE,135,0.0,0.0,72,0.00,CLR,,0.14,WeatherDisplay:10.37,2013-02-09 02:55:00,
2013-02-08 21:00:00,8.8,1.6,30.24,SE,135,0.0,0.0,72,0.00,CLR,,0.14,WeatherDisplay:10.37,2013-02-09 03:00:00,
2013-02-08 21:05:00,8.4,1.2,30.24,SE,135,0.0,0.0,72,0.00,CLR,,0.14,WeatherDisplay:10.37,2013-02-09 03:05:00,
2013-02-08 21:10:00,8.0,0.8,30.24,SE,135,0.0,0.0,72,0.00,CLR,,0.14,WeatherDisplay:10.37,2013-02-09 03:10:00,
2013-02-08 21:15:00,7.7,0.5,30.24,SE,135,0.0,0.0,72,0.00,CLR,,0.14,WeatherDisplay:10.37,2013-02-09 03:15:00,
2013-02-08 21:20:00,7.5,0.4,30.24,SE,135,0.0,0.0,72,0.00,CLR,,0.14,WeatherDisplay:10.37,2013-02-09 03:20:00,
2013-02-08 21:25:00,7.5,0.7,30.24,SE,135,0.0,0.0,73,0.00,CLR,,0.14,WeatherDisplay:10.37,2013-02-09 03:25:00,
2013-02-08 21:30:00,7.5,0.7,30.24,SE,135,0.0,0.0,73,0.00,CLR,,0.14,WeatherDisplay:10.37,2013-02-09 03:30:00,
2013-02-08 21:35:00,7.3,0.5,30.24,SE,135,0.0,0.0,73,0.00,CLR,,0.14,WeatherDisplay:10.37,2013-02-09 03:35:00,
2013-02-08 21:40:00,7.2,0.3,30.24,SE,135,0.0,0.0,73,0.00,CLR,,0.14,WeatherDisplay:10.37,2013-02-09 03:40:00,
2013-02-08 21:45:00,7.3,0.8,30.24,SE,135,0.0,0.0,74,0.00,CLR,,0.14,WeatherDisplay:10.37,2013-02-09 03:45:00,
2013-02-08 21:50:00,7.5,1.0,30.24,SE,135,0.0,0.0,74,0.00,CLR,,0.14,WeatherDisplay:10.37,2013-02-09 03:50:00,
2013-02-08 21:55:00,7.5,1.0,30.23,SE,135,0.0,0.0,74,0.00,CLR,,0.14,WeatherDisplay:10.37,2013-02-09 03:55:00,
2013-02-08 22:00:00,7.5,1.2,30.23,SE,135,0.0,0.0,75,0.00,CLR,,0.14,WeatherDisplay:10.37,2013-02-09 04:00:00,
2013-02-08 22:05:00,7.5,1.2,30.23,SE,135,0.0,0.0,75,0.00,CLR,,0.14,WeatherDisplay:10.37,2013-02-09 04:05:00,
2013-02-08 22:10:00,7.5,1.2,30.23,SE,135,0.0,0.0,75,0.00,CLR,,0.14,WeatherDisplay:10.37,2013-02-09 04:10:00,
2013-02-08 22:15:00,7.5,1.2,30.23,SE,135,0.0,0.0,75,0.00,CLR,,0.14,WeatherDisplay:10.37,2013-02-09 04:15:00,
2013-02-08 22:20:00,7.3,1.1,30.23,SE,135,0.0,0.0,75,0.00,CLR,,0.14,WeatherDisplay:10.37,2013-02-09 04:20:00,
2013-02-08 22:25:00,7.3,1.1,30.23,SE,135,0.0,0.0,75,0.00,CLR,,0.14,WeatherDisplay:10.37,2013-02-09 04:25:00,
2013-02-08 22:30:00,7.3,1.1,30.23,SE,135,0.0,0.0,75,0.00,CLR,,0.14,WeatherDisplay:10.37,2013-02-09 04:30:00,
2013-02-08 22:35:00,7.2,1.0,30.23,SE,135,0.0,0.0,75,0.00,CLR,,0.14,WeatherDisplay:10.37,2013-02-09 04:35:00,
2013-02-08 22:40:00,7.3,1.1,30.23,SE,135,0.0,0.0,75,0.00,CLR,,0.14,WeatherDisplay:10.37,2013-02-09 04:40:00,
2013-02-08 22:45:00,7.3,1.1,30.23,SE,135,0.0,0.0,75,0.00,CLR,,0.14,WeatherDisplay:10.37,2013-02-09 04:45:00,
2013-02-08 22:50:00,7.3,1.1,30.23,SE,135,0.0,0.0,75,0.00,CLR,,0.14,WeatherDisplay:10.37,2013-02-09 04:50:00,
2013-02-08 22:55:00,7.3,1.1,30.23,SE,135,0.0,0.0,75,0.00,CLR,,0.14,WeatherDisplay:10.37,2013-02-09 04:55:00,
2013-02-08 23:00:00,7.5,1.2,30.23,SE,135,0.0,0.0,75,0.00,CLR,,0.14,WeatherDisplay:10.37,2013-02-09 05:00:00,
2013-02-08 23:05:00,7.8,1.8,30.23,SE,135,0.0,0.0,76,0.00,CLR,,0.14,WeatherDisplay:10.37,2013-02-09 05:05:00,
2013-02-08 23:10:00,8.4,2.4,30.23,SE,135,0.0,0.0,76,0.00,CLR,,0.14,WeatherDisplay:10.37,2013-02-09 05:10:00,
2013-02-08 23:15:00,9.0,2.9,30.23,SE,135,0.0,0.0,76,0.00,CLR,,0.14,WeatherDisplay:10.37,2013-02-09 05:15:00,
2013-02-08 23:20:00,9.4,3.4,30.23,SE,135,0.0,0.0,76,0.00,CLR,,0.14,WeatherDisplay:10.37,2013-02-09 05:20:00,
2013-02-08 23:25:00,9.7,3.9,30.22,SE,135,0.0,0.0,77,0.00,CLR,,0.14,WeatherDisplay:10.37,2013-02-09 05:25:00,
2013-02-08 23:30:00,10.0,4.3,30.22,SE,135,0.0,0.0,77,0.00,CLR,,0.14,WeatherDisplay:10.37,2013-02-09 05:30:00,
2013-02-08 23:35:00,10.3,4.5,30.22,ESE,120,0.0,0.0,77,0.00,CLR,,0.14,WeatherDisplay:10.37,2013-02-09 05:35:00,
2013-02-08 23:40:00,10.9,5.1,30.22,SE,124,0.0,0.0,77,0.00,CLR,,0.14,WeatherDisplay:10.37,2013-02-09 05:40:00,
2013-02-08 23:45:00,11.3,5.5,30.22,ESE,123,0.0,0.0,77,0.00,CLR,,0.14,WeatherDisplay:10.37,2013-02-09 05:45:00,
2013-02-08 23:50:00,11.9,6.1,30.22,ESE,112,0.0,0.0,77,0.00,CLR,,0.14,WeatherDisplay:10.37,2013-02-09 05:50:00,
2013-02-08 23:55:00,12.6,6.7,30.22,ESE,112,0.0,0.0,77,0.00,CLR,,0.14,WeatherDisplay:10.37,2013-02-09 05:55:00,